Latest Coastal Weather Observations for Port Macquarie Airport

IDN60701

Issued at 3:52 pm EST Wednesday 17 April 2024 (issued every 10 minutes, with the page automatically refreshed every 10 minutes)

About coastal observations | Map of coastal stations | Coastal observations for NSW | Marine services | Other Formats
Station Details ID: 060168 Name: PORT MACQUARIE AIRPORT AWS Lat: -31.43 Lon: 152.87 Height: 4.45 m
Data from the previous 72 hours. | See also: Recent months at Port Macquarie Airport
Date/Time
EST
Wind Sea
Height
m
Swell Vis
km
Cloud Weather Temp
°C
Press
MSL
hPa
Rain since
9am
mm
Dir  Spd
kts
Gust
kts
Height
m
Period
s
Dir
17/03:30pm E 6 10 - - - - 10 Partly cloudy - 23.9 1020.1 0.0
17/03:00pm E 8 11 - - - - 10 Mostly cloudy - 23.9 1020.2 0.0
17/02:30pm E 9 14 - - - - 10 Partly cloudy - 24.6 1020.2 0.0
17/02:00pm ENE 8 11 - - - - 10 Partly cloudy - 25.0 1020.4 0.0
17/01:30pm ENE 10 12 - - - - 10 Partly cloudy - 25.1 1020.6 0.0
17/01:00pm E 9 11 - - - - 10 - - 24.7 1020.8 0.0
17/12:30pm E 7 11 - - - - 10 - - 25.1 1021.5 0.0
17/12:00pm E 6 10 - - - - 10 - - 25.2 1022.1 0.0
17/11:30am ESE 5 8 - - - - 10 Partly cloudy - 24.9 1022.8 0.0
17/11:00am E 5 8 - - - - 10 Partly cloudy - 24.2 1023.2 0.0
17/10:30am S 5 8 - - - - 10 Partly cloudy - 23.9 1023.5 0.0
17/10:00am SSW 5 8 - - - - 10 Partly cloudy - 23.2 1023.6 0.0
17/09:30am WNW 1 4 - - - - 10 Partly cloudy - 22.0 1023.9 0.0
17/09:00am W 5 6 - - - - 10 - - 20.9 1023.8 9.2
17/08:30am W 5 7 - - - - 10 Partly cloudy - 19.5 1023.9 9.2
17/08:00am W 4 6 - - - - 10 - - 18.1 1023.8 9.2
17/07:30am W 4 6 - - - - 10 - - 17.4 1023.6 9.2
17/07:00am WNW 4 5 - - - - 10 - - 16.6 1023.1 9.2
17/06:30am W 4 5 - - - - 10 - - 15.9 1022.6 9.2
17/06:09am W 3 6 - - - - 10 Partly cloudy - 15.8 1022.4 9.2
17/06:00am W 4 5 - - - - 10 Partly cloudy - 15.7 1022.5 9.2
17/05:46am W 4 6 - - - - 10 Cloudy - 15.9 1022.4 9.2
17/05:30am W 5 7 - - - - 2 Cloudy - 16.0 1022.3 9.2
17/05:04am WNW 4 6 - - - - 5 Partly cloudy - 15.9 1022.2 9.2
17/05:03am WNW 4 6 - - - - 6 Partly cloudy - 15.9 1022.2 9.2
17/05:00am WNW 4 5 - - - - 10 Partly cloudy - 15.9 1022.2 9.2
17/04:30am W 5 6 - - - - 10 - - 16.1 1022.1 9.2
17/04:00am W 4 5 - - - - 10 - - 15.9 1021.9 9.2
17/03:48am W 1 5 - - - - 10 - - 15.6 1022.0 9.2
17/03:30am W 1 3 - - - - 2 - - 15.1 1022.0 9.0
17/03:22am W 2 3 - - - - 5 - - 15.0 1022.0 9.0
17/03:00am W 1 4 - - - - 10 - - 15.7 1021.9 9.0
17/02:39am W 4 5 - - - - 10 - - 16.1 1022.0 9.0
17/02:30am W 4 5 - - - - 6 - - 15.9 1022.0 9.0
17/02:11am CALM 0 0 - - - - 5 - - 15.1 1022.1 9.0
17/02:00am CALM 0 0 - - - - 10 - - 15.9 1022.1 9.0
17/01:30am SW 4 6 - - - - 10 - - 16.2 1022.1 9.0
17/01:00am CALM 0 1 - - - - 10 - - 16.1 1022.2 9.0
17/12:30am NW 3 5 - - - - 10 - - 16.9 1022.1 9.0
17/12:00am NW 5 7 - - - - 10 - - 17.3 1022.1 9.0
 
Date/Time
EST
Wind Sea
Height
m
Swell Vis
km
Cloud Weather Temp
°C
Press
MSL
hPa
Rain since
9am
mm
Dir  Spd
kts
Gust
kts
Height
m
Period
s
Dir
16/11:30pm W 5 7 - - - - 10 - - 17.4 1022.2 9.0
16/11:00pm W 5 7 - - - - 10 - - 17.2 1022.4 9.0
16/10:30pm NW 4 4 - - - - 10 - - 17.0 1022.5 9.0
16/10:00pm WNW 6 8 - - - - 10 - - 17.5 1022.7 9.0
16/09:30pm WNW 4 7 - - - - 10 - - 17.6 1023.1 9.0
16/09:00pm NW 6 8 - - - - 10 - Recent precip. 17.8 1023.2 9.0
16/08:30pm NNW 4 6 - - - - 10 Partly cloudy - 18.4 1023.2 9.0
16/08:00pm WNW 6 10 - - - - 10 Partly cloudy - 18.6 1023.2 8.4
16/07:48pm WNW 8 9 - - - - 9 Partly cloudy - 19.3 1023.2 8.4
16/07:40pm NNW 6 9 - - - - 6 Partly cloudy - 19.6 1023.1 8.2
16/07:30pm NNW 5 8 - - - - 5 Partly cloudy - 19.3 1022.7 7.8
16/07:25pm NNW 8 12 - - - - 4 Partly cloudy - 19.5 1023.0 7.6
16/07:23pm N 9 12 - - - - 4 Partly cloudy - 19.6 1023.2 7.6
16/07:17pm NNE 8 11 - - - - 5 Partly cloudy - 19.8 1023.2 7.0
16/07:00pm NNE 4 9 - - - - 10 Partly cloudy - 20.1 1023.0 6.0
16/06:57pm NNE 3 5 - - - - 10 Partly cloudy - 20.4 1023.1 6.0
16/06:43pm WNW 2 5 - - - - 10 Partly cloudy - 20.5 1022.9 6.0
16/06:42pm WNW 2 5 - - - - 10 Partly cloudy - 20.6 1022.9 6.0
16/06:38pm WNW 4 5 - - - - 10 Partly cloudy - 20.7 1022.8 6.0
16/06:32pm NNW 5 7 - - - - 7 Partly cloudy - 20.7 1022.6 6.0
16/06:30pm N 5 7 - - - - 6 Partly cloudy - 20.7 1022.5 6.0
16/06:09pm W 4 7 - - - - 4 Partly cloudy - 21.0 1021.9 4.6
16/06:08pm W 5 7 - - - - 5 Partly cloudy - 21.0 1021.9 4.4
16/06:00pm W 6 8 - - - - 10 Cloudy Thunderstorm 20.8 1021.8 4.0
16/05:49pm WSW 6 8 - - - - 10 Partly cloudy - 21.1 1021.7 4.0
16/05:41pm W 5 6 - - - - 7 Partly cloudy - 21.0 1021.5 4.0
16/05:30pm WNW 4 5 - - - - 3 Partly cloudy - 21.4 1021.4 3.6
16/05:22pm NW 3 5 - - - - 4 Partly cloudy - 21.4 1021.0 2.2
16/05:20pm NW 2 5 - - - - 5 Partly cloudy - 21.4 1021.0 1.8
16/05:12pm NNW 3 6 - - - - 10 Partly cloudy - 21.9 1021.0 1.2
16/05:03pm N 5 6 - - - - 10 Partly cloudy - 21.9 1021.1 1.0
16/05:00pm N 5 6 - - - - 10 Partly cloudy - 22.0 1020.9 1.0
16/04:35pm ENE 3 5 - - - - 9 Partly cloudy - 22.5 1020.6 0.8
16/04:30pm ESE 1 5 - - - - 7 Partly cloudy - 22.4 1020.7 0.6
16/04:15pm ESE 4 7 - - - - 4 Partly cloudy - 23.4 1020.3 0.2
16/04:08pm SE 5 7 - - - - 10 Partly cloudy - 23.5 1020.2 0.0
16/04:00pm SE 5 7 - - - - 10 Partly cloudy - 23.6 1020.1 0.0
16/03:30pm SE 7 9 - - - - 10 - - 24.7 1020.0 0.0
16/03:00pm SSE 8 11 - - - - 10 Partly cloudy - 25.5 1019.8 0.0
16/02:30pm SE 7 9 - - - - 10 Partly cloudy - 24.2 1020.3 0.0
16/02:00pm SSE 9 14 - - - - 10 Partly cloudy - 24.9 1020.2 0.0
16/01:30pm SE 8 12 - - - - 10 - - 25.2 1020.3 0.0
16/01:00pm SSE 8 12 - - - - 10 Partly cloudy - 26.5 1020.4 0.0
16/12:30pm S 6 9 - - - - 10 - - 26.5 1020.7 0.0
16/12:00pm WSW 3 6 - - - - 10 - - 26.1 1021.4 0.0
16/11:30am SSE 4 7 - - - - 10 - - 25.7 1021.9 0.0
16/11:00am SSW 5 8 - - - - 10 - - 24.9 1022.4 0.0
16/10:30am S 6 8 - - - - 10 - - 25.0 1022.6 0.0
16/10:00am SW 3 5 - - - - 10 Partly cloudy - 23.3 1022.9 0.0
16/09:30am WSW 4 6 - - - - 10 Cloudy - 23.0 1023.0 0.0
16/09:00am WSW 3 5 - - - - 10 Partly cloudy - 22.1 1023.1 7.6
16/08:30am W 5 6 - - - - 10 Partly cloudy - 20.6 1023.0 7.6
16/08:00am W 4 6 - - - - 10 Partly cloudy - 19.7 1022.8 7.6
16/07:30am W 4 6 - - - - 10 Cloudy - 19.0 1022.5 7.6
16/07:00am WSW 5 7 - - - - 10 Cloudy - 18.0 1022.3 7.6
16/06:30am WSW 2 4 - - - - 10 Partly cloudy - 17.9 1022.0 7.6
16/06:00am W 5 8 - - - - 10 Cloudy - 17.9 1021.6 7.6
16/05:30am W 6 9 - - - - 10 Cloudy - 17.7 1021.4 7.6
16/05:00am WNW 1 5 - - - - 10 Partly cloudy - 17.0 1021.2 7.6
16/04:30am WNW 1 4 - - - - 10 - - 17.0 1020.8 7.6
16/04:00am W 7 9 - - - - 10 - - 17.3 1020.5 7.6
16/03:30am WNW 7 11 - - - - 10 - - 17.2 1020.6 7.6
16/03:00am WNW 5 6 - - - - 10 Cloudy - 17.1 1020.9 7.6
16/02:30am WNW 4 7 - - - - 10 - - 17.2 1021.4 7.6
16/02:00am NW 7 9 - - - - 10 Partly cloudy - 17.3 1021.3 7.6
16/01:30am WSW 7 9 - - - - 10 Partly cloudy - 17.2 1021.6 7.6
16/01:23am WSW 7 10 - - - - 10 Partly cloudy - 17.4 1021.8 7.6
16/01:06am NW 3 7 - - - - 5 Partly cloudy - 17.7 1021.9 7.0
16/01:00am N 7 10 - - - - 10 Partly cloudy - 17.9 1022.5 6.6
16/12:30am WNW 9 12 - - - - 9 Partly cloudy - 18.2 1023.1 5.6
16/12:00am WNW 8 13 - - - - 10 Cloudy Thunderstorm 19.3 1023.1 5.2
 
Date/Time
EST
Wind Sea
Height
m
Swell Vis
km
Cloud Weather Temp
°C
Press
MSL
hPa
Rain since
9am
mm
Dir  Spd
kts
Gust
kts
Height
m
Period
s
Dir
15/11:30pm WSW 9 21 - - - - 10 Partly cloudy - 18.8 1022.9 5.2
15/11:12pm SE 6 7 - - - - 10 Partly cloudy - 18.5 1022.5 5.2
15/11:00pm S 5 8 - - - - 4 Partly cloudy - 18.5 1022.8 5.2
15/10:47pm W 5 8 - - - - 4 Partly cloudy - 18.7 1023.4 3.6
15/10:30pm WSW 7 11 - - - - 10 Partly cloudy - 18.5 1023.3 2.8
15/10:00pm CALM 0 0 - - - - 10 Cloudy - 17.9 1023.0 2.8
15/09:30pm WNW 2 5 - - - - 10 Partly cloudy - 18.3 1022.9 2.8
15/09:00pm CALM 0 0 - - - - 10 Partly cloudy - 18.1 1022.9 2.8
15/08:30pm W 2 6 - - - - 10 Partly cloudy - 17.8 1022.5 2.8
15/08:00pm CALM 0 0 - - - - 10 Partly cloudy - 18.1 1022.2 2.8
15/07:30pm NW 1 4 - - - - 10 Partly cloudy - 18.6 1022.2 2.8
15/07:00pm W 4 6 - - - - 10 Partly cloudy - 19.0 1021.9 2.8
15/06:35pm S 5 7 - - - - 10 Partly cloudy - 19.1 1021.9 2.8
15/06:30pm SE 5 7 - - - - 10 Partly cloudy - 19.2 1021.8 2.8
15/06:15pm NW 1 5 - - - - 5 Partly cloudy - 19.8 1022.0 2.2
15/06:11pm NW 3 5 - - - - 7 Partly cloudy - 19.9 1022.1 2.0
15/06:00pm NW 5 6 - - - - 5 Cloudy Rain 20.1 1022.0 1.6
15/05:48pm W 4 6 - - - - 5 Partly cloudy - 20.6 1021.9 0.8
15/05:44pm SW 2 6 - - - - 8 Partly cloudy - 21.0 1021.8 0.4
15/05:30pm S 6 11 - - - - 10 Partly cloudy - 21.8 1021.7 0.0
15/05:10pm SSE 6 11 - - - - 10 Partly cloudy - 22.8 1021.0 0.0
15/05:00pm SW 10 25 - - - - 10 Partly cloudy - 23.6 1021.1 0.0
15/04:53pm WSW 13 25 - - - - 10 Partly cloudy - 24.3 1020.9 0.0
15/04:39pm NE 6 8 - - - - 10 Partly cloudy - 24.5 1020.4 0.0
15/04:30pm NE 6 8 - - - - 10 Partly cloudy - 24.6 1020.1 0.0
15/04:28pm NE 6 8 - - - - 10 Partly cloudy - 24.7 1020.1 0.0
15/04:00pm NE 7 9 - - - - 10 Partly cloudy - 26.0 1019.8 0.0
15/03:30pm NE 7 9 - - - - 10 Partly cloudy - 25.3 1020.1 0.0
15/03:00pm NE 8 10 - - - - 10 Mostly cloudy - 25.3 1020.0 0.0
15/02:30pm ENE 9 13 - - - - 10 - - 25.5 1020.0 0.0
15/02:00pm ENE 9 12 - - - - 10 Partly cloudy - 26.3 1020.1 0.0
15/01:30pm ENE 9 13 - - - - 10 - - 26.8 1020.2 0.0
15/01:00pm ENE 8 11 - - - - 10 - - 26.6 1020.5 0.0
15/12:30pm ENE 6 8 - - - - 10 - - 26.5 1020.8 0.0
15/12:00pm ENE 6 9 - - - - 10 - - 26.1 1021.3 0.0
15/11:30am NNE 3 6 - - - - 10 - - 26.3 1021.8 0.0
15/11:00am NNE 5 7 - - - - 10 - - 25.0 1022.3 0.0
15/10:30am NNW 4 7 - - - - 10 - - 24.4 1022.7 0.0
15/10:00am NW 5 7 - - - - 10 - - 23.1 1022.9 0.0
15/09:30am N 5 6 - - - - 10 Partly cloudy - 22.1 1023.1 0.0
15/09:00am WNW 6 8 - - - - 10 Partly cloudy - 20.2 1023.3 0.0
15/08:30am WNW 4 6 - - - - 10 Partly cloudy - 18.9 1023.6 0.0
15/08:00am WNW 4 6 - - - - 10 - - 17.6 1023.4 0.0
15/07:30am NW 4 6 - - - - 10 - - 16.9 1023.2 0.0
15/07:00am NNW 3 4 - - - - 10 - - 16.0 1022.9 0.0
15/06:30am N 1 3 - - - - 10 - - 14.9 1022.7 0.0
15/06:28am N 1 3 - - - - 10 - - 14.8 1022.7 0.0
15/06:00am CALM 0 0 - - - - 4 - - 14.8 1022.4 0.0
15/05:30am NNW 3 3 - - - - 10 - - 15.2 1022.3 0.0
15/05:00am CALM 0 0 - - - - 10 Partly cloudy - 14.5 1022.3 0.0
15/04:30am CALM 0 0 - - - - 10 - - 15.3 1022.0 0.0
15/04:11am CALM 0 0 - - - - 5 - - 14.7 1022.0 0.0
15/04:09am CALM 0 0 - - - - 10 - - 15.2 1022.0 0.0
15/04:00am CALM 0 0 - - - - 7 - - 15.2 1022.0 0.0
15/03:49am CALM 0 0 - - - - 4 - - 14.9 1022.0 0.0
15/03:30am CALM 0 0 - - - - 10 Partly cloudy - 15.8 1022.1 0.0
15/03:00am NNW 2 4 - - - - 10 Mostly clear - 16.0 1022.1 0.0
15/02:30am CALM 0 0 - - - - 10 Partly cloudy - 15.4 1022.1 0.0
15/02:23am CALM 0 0 - - - - 10 Partly cloudy - 15.7 1022.2 0.0
15/02:02am CALM 0 0 - - - - 5 Partly cloudy - 15.0 1022.3 0.0
15/02:00am CALM 0 0 - - - - 8 - - 15.1 1022.3 0.0
15/01:55am CALM 0 0 - - - - 10 - - 14.9 1022.4 0.0
15/01:30am CALM 0 0 - - - - 2 - - 14.3 1022.6 0.0
15/01:28am CALM 0 0 - - - - 5 - - 14.4 1022.6 0.0
15/01:00am CALM 0 0 - - - - 10 - - 14.8 1022.7 0.0
15/12:34am CALM 0 0 - - - - 10 - - 15.0 1022.8 0.0
15/12:30am CALM 0 0 - - - - 10 - - 15.1 1022.8 0.0
15/12:08am CALM 0 0 - - - - 5 - - 15.1 1022.9 0.0
15/12:00am CALM 0 0 - - - - 10 - - 15.7 1022.9 0.0
 
Date/Time
EST
Wind Sea
Height
m
Swell Vis
km
Cloud Weather Temp
°C
Press
MSL
hPa
Rain since
9am
mm
Dir  Spd
kts
Gust
kts
Height
m
Period
s
Dir
14/11:30pm CALM 0 0 - - - - 10 - - 15.5 1023.1 0.0
14/11:00pm CALM 0 0 - - - - 10 - - 16.2 1023.1 0.0
14/10:30pm CALM 0 0 - - - - 10 - - 16.1 1023.1 0.0
14/10:00pm CALM 0 0 - - - - 10 - - 16.7 1023.3 0.0
14/09:30pm CALM 0 0 - - - - 10 - - 16.7 1023.4 0.0
14/09:00pm CALM 0 0 - - - - 10 - - 17.2 1023.4 0.0
14/08:30pm CALM 0 0 - - - - 10 Partly cloudy - 17.6 1023.2 0.0
14/08:00pm CALM 0 0 - - - - 10 Partly cloudy - 17.7 1023.1 0.0
14/07:30pm CALM 0 0 - - - - 10 Partly cloudy - 17.9 1022.8 0.0
14/07:00pm CALM 0 1 - - - - 10 Partly cloudy - 18.6 1022.5 0.0
14/06:30pm CALM 0 0 - - - - 10 - - 19.0 1022.3 0.0
14/06:00pm N 2 4 - - - - 10 - - 20.3 1022.0 0.0
14/05:30pm NNE 5 7 - - - - 10 - - 22.0 1021.7 0.0
14/05:00pm NE 7 8 - - - - 10 - - 23.0 1021.4 0.0
14/04:30pm NE 8 11 - - - - 10 - - 23.5 1021.2 0.0
14/04:00pm NE 9 13 - - - - 10 - - 23.8 1020.8 0.0

Other formats

Comma delimited format used in spreadsheet applications
http://www.bom.gov.au/fwo/IDN60701/IDN60701.94799.axf

JavaScript Object Notation format (JSON) in row-major order
http://www.bom.gov.au/fwo/IDN60701/IDN60701.94799.json

Data quality

Most of these data are generated automatically and are frequently updated. Quality checks on data are not normally performed. It is possible for incorrect values to appear. Refer to information at About Latest Weather Observations and please check the disclaimer before using these data.